Time;durP1;ratioP1;P1;durP2;ratioP2;P2;SDS_P1;SDS_P2;PMS_P1;PMS_P2;Temp;Humidity;BMP_temperature;BMP_pressure;BME280_temperature;BME280_humidity;BME280_pressure;Samples;Min_cycle;Max_cycle;Signal;HPM_P1;HPM_P2
2022/01/14 00:04:26;;;;;;;7.32;4.45;;;;;;;18.89;50.52;98439.19;10291424;28;20524;-22
2022/01/14 00:09:27;;;;;;;7.28;3.85;;;;;;;18.86;50.50;98428.97;10291050;28;20035;-22
2022/01/14 00:14:41;;;;;;;5.25;4.40;;;;;;;18.85;50.48;98437.41;10291577;28;20495;-21
2022/01/14 00:19:43;;;;;;;5.15;4.32;;;;;;;18.90;50.58;98445.97;10291060;28;20085;-23
2022/01/14 00:35:15;;;;;;;7.70;4.80;;;;;;;18.88;50.68;98473.00;10290555;28;20407;-22
2022/01/14 00:40:16;;;;;;;7.53;4.00;;;;;;;18.87;50.87;98471.28;10289261;28;20035;-22
2022/01/14 00:45:17;;;;;;;6.20;4.40;;;;;;;18.86;50.77;98472.13;10290342;28;20042;-21
2022/01/14 00:50:19;;;;;;;6.80;4.15;;;;;;;18.84;50.85;98472.06;10289720;28;20039;-23
2022/01/14 00:55:27;;;;;;;6.03;3.55;;;;;;;18.87;50.70;98478.91;10290421;28;20389;-22
2022/01/14 01:00:30;;;;;;;7.15;4.30;;;;;;;18.69;50.89;98448.84;10289752;28;20042;-21
2022/01/14 01:05:30;;;;;;;5.30;3.85;;;;;;;18.86;50.79;98482.28;10289382;28;20625;-22
2022/01/14 01:10:33;;;;;;;7.15;4.20;;;;;;;18.86;50.84;98488.22;10289350;28;20066;-23
2022/01/14 01:15:33;;;;;;;6.85;4.20;;;;;;;18.85;51.00;98490.72;10289479;28;20035;-22
2022/01/14 01:20:34;;;;;;;7.45;4.63;;;;;;;18.84;50.96;98481.38;10289194;28;20031;-23
2022/01/14 01:25:40;;;;;;;5.22;3.85;;;;;;;18.85;50.99;98478.00;10288754;28;20038;-22
2022/01/14 01:36:00;;;;;;;7.20;4.25;;;;;;;18.85;50.87;98467.88;10288156;28;20551;-22
2022/01/14 01:41:00;;;;;;;4.22;3.78;;;;;;;18.87;50.92;98468.75;10288018;28;20101;-22
2022/01/14 01:46:01;;;;;;;5.00;3.70;;;;;;;18.87;50.83;98476.38;10288595;28;20557;-22
2022/01/14 01:51:04;;;;;;;5.60;4.43;;;;;;;18.87;50.93;98471.28;10287992;28;20026;-22
2022/01/14 01:56:05;;;;;;;4.82;3.40;;;;;;;18.87;50.95;98464.56;10288455;28;20081;-22
2022/01/14 02:01:06;;;;;;;12.23;4.28;;;;;;;18.87;50.75;98466.22;10287384;28;20568;-22
2022/01/14 02:06:07;;;;;;;6.55;4.43;;;;;;;18.85;50.66;98456.00;10288133;28;20405;-22
2022/01/14 02:11:07;;;;;;;5.47;3.45;;;;;;;18.88;50.79;98442.56;10286880;28;20075;-23
2022/01/14 02:26:27;;;;;;;5.55;3.85;;;;;;;18.83;50.87;98439.06;10287065;28;20039;-22
2022/01/14 02:31:28;;;;;;;4.47;3.60;;;;;;;18.85;50.84;98447.56;10287045;28;20397;-21
2022/01/14 02:36:31;;;;;;;3.87;3.47;;;;;;;18.83;50.99;98439.06;10286636;28;20086;-23
2022/01/14 02:41:35;;;;;;;4.00;3.55;;;;;;;18.83;50.82;98433.97;10286818;28;20509;-23
2022/01/14 02:46:49;;;;;;;5.50;3.78;;;;;;;18.83;50.68;98428.91;10287339;28;20086;-22
2022/01/14 02:51:50;;;;;;;3.83;3.22;;;;;;;18.79;50.65;98422.03;10287077;28;20058;-22
2022/01/14 02:56:53;;;;;;;3.63;3.00;;;;;;;18.81;50.65;98421.25;10287428;28;20374;-22
2022/01/14 03:01:54;;;;;;;3.78;3.38;;;;;;;18.82;50.71;98415.34;10285867;28;20053;-23
2022/01/14 03:06:54;;;;;;;5.13;3.20;;;;;;;18.81;50.92;98420.38;10291292;28;20038;-22
2022/01/14 03:11:58;;;;;;;3.80;3.05;;;;;;;18.67;50.67;98396.34;10293889;28;20081;-22
2022/01/14 03:17:00;;;;;;;3.30;2.92;;;;;;;18.83;50.71;98408.59;10292913;28;20053;-23
2022/01/14 03:22:07;;;;;;;4.55;3.55;;;;;;;18.76;50.62;98396.56;10332875;28;20519;-24
2022/01/14 03:27:07;;;;;;;4.47;3.42;;;;;;;18.86;50.63;98401.06;10305400;28;20125;-21
2022/01/14 03:32:08;;;;;;;5.00;3.58;;;;;;;18.86;50.65;98401.94;10292846;28;20038;-22
2022/01/14 03:37:09;;;;;;;4.18;3.45;;;;;;;18.84;50.95;98398.47;10293378;28;20042;-23
2022/01/14 03:42:09;;;;;;;3.97;3.58;;;;;;;18.83;50.95;98403.53;10292324;28;20041;-22
2022/01/14 03:47:10;;;;;;;6.23;3.30;;;;;;;18.82;50.88;98407.72;10292641;28;20057;-23
2022/01/14 03:52:10;;;;;;;5.65;3.60;;;;;;;18.83;50.95;98408.59;10291550;28;20038;-22
2022/01/14 03:57:10;;;;;;;5.38;3.50;;;;;;;18.84;50.98;98405.25;10291383;28;20105;-21
2022/01/14 04:02:11;;;;;;;6.00;3.17;;;;;;;18.82;50.94;98405.19;10292776;28;20047;-24
2022/01/14 04:07:11;;;;;;;4.40;3.53;;;;;;;18.83;50.89;98403.53;10293383;28;20773;-22
2022/01/14 04:12:18;;;;;;;3.10;2.80;;;;;;;18.83;51.10;98401.00;10291122;28;20406;-22
2022/01/14 04:17:18;;;;;;;4.30;3.03;;;;;;;18.85;51.00;98391.72;10292097;28;20282;-22
2022/01/14 04:22:18;;;;;;;5.97;2.87;;;;;;;18.82;50.89;98387.44;10290853;28;20501;-23
2022/01/14 04:27:19;;;;;;;5.70;3.13;;;;;;;18.83;50.93;98383.22;10290625;28;20309;-23
2022/01/14 04:32:19;;;;;;;3.70;2.83;;;;;;;18.81;50.61;98379.78;10290769;28;20035;-22
2022/01/14 04:37:20;;;;;;;6.03;2.60;;;;;;;18.81;50.98;98374.69;10290683;28;20042;-22
2022/01/14 04:42:20;;;;;;;2.75;2.47;;;;;;;18.82;51.03;98361.22;10289676;28;20093;-22
2022/01/14 04:52:41;;;;;;;4.03;2.50;;;;;;;18.70;51.08;98321.16;10290190;28;20038;-22
2022/01/14 04:57:42;;;;;;;3.80;2.80;;;;;;;18.86;50.83;98347.75;10296295;28;20092;-22
2022/01/14 05:02:43;;;;;;;5.40;2.97;;;;;;;18.88;50.53;98346.97;10306377;28;20513;-23
2022/01/14 05:07:46;;;;;;;4.40;3.20;;;;;;;18.88;50.52;98341.03;10289681;28;20039;-22
2022/01/14 05:12:46;;;;;;;3.72;2.80;;;;;;;18.76;50.53;98320.44;10289375;28;20085;-22
2022/01/14 05:17:48;;;;;;;6.25;2.63;;;;;;;18.90;50.03;98334.31;10288592;28;20034;-22
2022/01/14 05:22:48;;;;;;;3.55;2.80;;;;;;;18.82;50.66;98346.81;10288520;28;20038;-22
2022/01/14 05:27:48;;;;;;;3.00;2.47;;;;;;;18.75;50.40;98336.50;10287418;28;20031;-21
2022/01/14 05:32:52;;;;;;;4.67;3.33;;;;;;;18.63;49.96;98314.22;10288545;28;20039;-22
2022/01/14 05:37:53;;;;;;;3.85;3.33;;;;;;;18.75;49.48;98328.88;10287943;28;20298;-22
2022/01/14 05:42:54;;;;;;;3.72;2.97;;;;;;;18.73;48.27;98320.34;10288086;28;20039;-22
2022/01/14 05:47:55;;;;;;;7.68;6.47;;;;;;;15.53;38.98;98327.13;10287156;28;20494;-23
2022/01/14 05:52:55;;;;;;;10.77;7.18;;;;;;;15.04;36.74;98323.53;10287649;28;20046;-21
2022/01/14 05:57:56;;;;;;;7.43;6.20;;;;;;;16.41;39.07;98308.41;10287577;28;20027;-20
2022/01/14 06:02:56;;;;;;;9.33;5.03;;;;;;;17.70;41.62;98306.63;10287026;28;20812;-21
2022/01/14 06:07:56;;;;;;;7.10;4.03;;;;;;;18.04;43.50;98298.25;10286223;28;20034;-21
2022/01/14 06:12:57;;;;;;;6.70;4.00;;;;;;;18.27;44.40;98303.13;10286882;28;20305;-21
2022/01/14 06:17:57;;;;;;;6.85;3.58;;;;;;;18.54;44.60;98292.84;10286695;28;20053;-21
2022/01/14 06:22:59;;;;;;;3.87;3.17;;;;;;;18.52;45.62;98291.94;10287308;28;20030;-21
2022/01/14 06:28:00;;;;;;;4.82;2.88;;;;;;;18.60;46.65;98295.53;10286733;28;20070;-21
2022/01/14 06:33:00;;;;;;;7.88;3.38;;;;;;;18.69;45.03;98293.22;10287348;28;20070;-22
2022/01/14 06:38:01;;;;;;;5.80;3.33;;;;;;;18.63;45.68;98282.91;10288503;28;20509;-23
2022/01/14 06:43:02;;;;;;;6.28;3.70;;;;;;;18.72;46.83;98299.22;10294609;28;20123;-23
2022/01/14 06:48:03;;;;;;;24.67;7.07;;;;;;;17.77;37.56;98292.44;10294758;28;20494;-21
2022/01/14 06:53:03;;;;;;;8.93;4.30;;;;;;;18.34;45.05;98291.50;10292247;28;20111;-21
2022/01/14 06:58:03;;;;;;;8.60;4.20;;;;;;;18.48;46.22;98292.66;10294546;28;20041;-21
2022/01/14 07:03:04;;;;;;;6.70;4.50;;;;;;;18.57;46.28;98303.91;10293093;28;20120;-22
2022/01/14 07:08:04;;;;;;;7.60;4.13;;;;;;;18.62;46.54;98311.63;10294014;28;20425;-21
2022/01/14 07:13:05;;;;;;;8.90;4.18;;;;;;;18.60;47.11;98313.28;10294652;28;20045;-22
2022/01/14 07:18:06;;;;;;;8.43;4.45;;;;;;;18.59;46.97;98329.34;10293623;28;20041;-22
2022/01/14 07:23:06;;;;;;;5.22;4.05;;;;;;;18.61;46.99;98317.53;10293970;28;20089;-21
2022/01/14 07:28:07;;;;;;;7.72;4.60;;;;;;;18.62;47.06;98322.66;10293608;28;20082;-21
2022/01/14 07:33:07;;;;;;;5.90;4.07;;;;;;;18.62;47.08;98334.47;10293009;28;20038;-21
2022/01/14 07:38:07;;;;;;;7.53;4.33;;;;;;;18.53;46.97;98330.03;10293153;28;20282;-22
2022/01/14 07:43:08;;;;;;;7.27;5.10;;;;;;;18.64;47.07;98351.44;10292666;28;20779;-21
2022/01/14 07:48:08;;;;;;;5.65;4.25;;;;;;;18.63;47.16;98359.00;10290360;28;20457;-21
2022/01/14 07:53:09;;;;;;;6.10;4.13;;;;;;;18.64;47.43;98356.53;10291378;28;20043;-21
2022/01/14 07:58:09;;;;;;;6.20;4.47;;;;;;;18.69;47.26;98354.09;10291513;28;20301;-21
2022/01/14 08:03:10;;;;;;;7.13;4.32;;;;;;;18.58;47.40;98345.38;10291193;28;20034;-21
2022/01/14 08:08:10;;;;;;;7.03;4.27;;;;;;;18.67;47.39;98363.34;10291652;28;20394;-21
2022/01/14 08:13:11;;;;;;;8.02;4.82;;;;;;;18.56;46.61;98357.13;10290926;28;20051;-21
2022/01/14 08:18:11;;;;;;;8.13;5.70;;;;;;;18.63;47.18;98357.34;10292042;28;20077;-22
2022/01/14 08:23:11;;;;;;;10.27;7.00;;;;;;;18.67;47.41;98366.75;10291124;28;20039;-22
2022/01/14 08:28:12;;;;;;;20.92;11.93;;;;;;;18.66;47.44;98365.03;10291070;28;20754;-21
2022/01/14 08:33:12;;;;;;;69.10;36.47;;;;;;;18.56;47.39;98342.78;10290953;28;20053;-22
2022/01/14 08:38:14;;;;;;;87.30;44.07;;;;;;;18.56;45.79;98358.00;10290378;28;20489;-18
2022/01/14 08:43:14;;;;;;;138.18;72.43;;;;;;;18.45;39.91;98353.47;10288836;28;20410;-21
2022/01/14 08:48:17;;;;;;;93.13;46.93;;;;;;;18.44;41.92;98326.41;10289960;28;20255;-21
2022/01/14 08:53:18;;;;;;;98.68;50.38;;;;;;;18.57;44.70;98338.59;10290746;28;20325;-21
2022/01/14 08:58:18;;;;;;;77.60;41.20;;;;;;;18.60;45.13;98325.97;10290017;28;20051;-22
2022/01/14 09:03:19;;;;;;;73.13;38.53;;;;;;;18.71;44.85;98337.22;10289120;28;20565;-21
2022/01/14 09:08:19;;;;;;;72.63;37.30;;;;;;;18.55;45.43;98338.53;10289459;28;20312;-21
2022/01/14 09:13:19;;;;;;;66.10;34.97;;;;;;;18.65;45.54;98337.06;10289894;28;20035;-21
2022/01/14 09:18:20;;;;;;;59.13;33.93;;;;;;;18.66;45.72;98333.75;10289035;28;20808;-21
2022/01/14 09:23:24;;;;;;;62.35;31.00;;;;;;;18.48;45.77;98292.66;10289405;28;20290;-21
2022/01/14 09:28:34;;;;;;;55.30;29.73;;;;;;;18.56;45.14;98316.56;10484418;28;20433;-20
2022/01/14 09:33:35;;;;;;;39.33;21.05;;;;;;;18.27;41.73;98308.19;10485584;28;20544;-21
2022/01/14 09:38:35;;;;;;;40.95;23.85;;;;;;;18.55;40.27;98304.69;10484453;28;20482;-20
2022/01/14 09:43:38;;;;;;;42.00;24.70;;;;;;;18.67;42.18;98310.09;10484097;28;20032;-20
2022/01/14 09:48:39;;;;;;;39.95;22.88;;;;;;;18.67;43.46;98305.00;10471291;28;20507;-20
2022/01/14 09:53:39;;;;;;;43.33;23.13;;;;;;;18.63;44.04;98304.06;10436749;28;20029;-21
2022/01/14 09:58:46;;;;;;;36.97;21.53;;;;;;;18.58;44.34;98302.25;10439304;28;20037;-20
2022/01/14 10:03:57;;;;;;;37.47;20.58;;;;;;;18.54;44.49;98302.97;10447241;28;20111;-20
2022/01/14 10:09:08;;;;;;;41.03;19.95;;;;;;;18.60;44.69;98310.75;10482820;28;20048;-21
2022/01/14 10:14:19;;;;;;;31.95;18.45;;;;;;;18.65;44.75;98311.69;10484483;28;20418;-21
2022/01/14 10:19:22;;;;;;;31.52;17.90;;;;;;;18.67;45.09;98325.31;10468982;28;20044;-21
2022/01/14 10:24:29;;;;;;;32.47;18.40;;;;;;;18.65;45.35;98327.78;10446870;28;20059;-20
2022/01/14 10:29:34;;;;;;;28.80;17.17;;;;;;;18.67;45.52;98325.31;10422075;28;20041;-20
2022/01/14 10:34:35;;;;;;;29.08;17.10;;;;;;;18.67;45.72;98330.38;10432640;28;20043;-19
2022/01/14 10:39:44;;;;;;;28.65;16.77;;;;;;;18.66;46.00;98333.75;10444902;28;20535;-21
2022/01/14 10:44:44;;;;;;;27.27;16.30;;;;;;;18.69;45.92;98324.53;10409704;28;20412;-20
2022/01/14 10:49:47;;;;;;;31.13;17.27;;;;;;;18.69;46.38;98326.19;10416980;28;20037;-20
2022/01/14 10:54:50;;;;;;;28.50;16.27;;;;;;;18.70;46.40;98312.69;10393763;28;20468;-20
2022/01/14 10:59:53;;;;;;;26.25;15.07;;;;;;;18.70;46.54;98310.16;10408835;28;20292;-20
2022/01/14 11:05:17;;;;;;;27.50;15.82;;;;;;;18.70;46.79;98310.16;10409436;28;20030;-22
2022/01/14 11:10:24;;;;;;;27.13;15.57;;;;;;;18.68;47.21;98299.09;10409498;28;20042;-21
2022/01/14 11:15:25;;;;;;;;;;;;;;;18.70;47.18;98302.53;10411291;28;20034;-20
2022/01/14 11:20:34;;;;;;;26.92;16.20;;;;;;;18.66;47.14;98294.00;10413234;28;19960;-21
2022/01/14 11:25:41;;;;;;;24.02;14.23;;;;;;;18.70;47.08;98297.47;10412963;28;20373;-23
2022/01/14 11:30:42;;;;;;;26.08;14.77;;;;;;;18.53;46.93;98276.78;10413082;28;20056;-22
2022/01/14 11:35:53;;;;;;;27.58;16.25;;;;;;;18.65;46.81;98278.72;10419681;28;20063;-23
2022/01/14 11:40:54;;;;;;;32.03;18.00;;;;;;;18.57;46.80;98277.72;10440249;28;20408;-24
2022/01/14 11:45:54;;;;;;;32.77;16.00;;;;;;;18.65;47.66;98266.03;10389954;28;20033;-22
2022/01/14 11:51:00;;;;;;;33.63;18.15;;;;;;;18.69;47.67;98260.22;10394126;28;20798;-22
2022/01/14 11:56:01;;;;;;;27.83;16.25;;;;;;;18.71;47.63;98250.97;10429172;28;20450;-23
2022/01/14 12:01:01;;;;;;;27.23;16.33;;;;;;;18.70;47.47;98249.25;10452476;28;20086;-22
2022/01/14 12:06:07;;;;;;;26.60;15.93;;;;;;;18.77;47.73;98234.19;10413998;28;20061;-23
2022/01/14 12:11:08;;;;;;;28.05;15.27;;;;;;;18.73;47.84;98234.09;10430031;28;20040;-22
2022/01/14 12:21:48;;;;;;;25.55;14.75;;;;;;;18.73;47.81;98226.47;10402806;28;20068;-23
2022/01/14 12:26:51;;;;;;;28.13;14.30;;;;;;;18.70;48.02;98229.81;10401967;28;20036;-23
2022/01/14 12:32:05;;;;;;;25.63;14.30;;;;;;;18.69;48.07;98219.63;10412261;28;20037;-23
2022/01/14 12:37:07;;;;;;;22.55;13.70;;;;;;;18.69;48.03;98227.25;10372707;28;20030;-22
2022/01/14 12:42:09;;;;;;;24.85;13.95;;;;;;;18.62;48.32;98216.09;10390696;28;20088;-20
2022/01/14 12:47:10;;;;;;;21.88;13.05;;;;;;;18.67;48.61;98218.75;10379761;28;20410;-22
2022/01/14 12:52:14;;;;;;;23.92;14.55;;;;;;;18.66;48.28;98217.03;10388186;28;20048;-23
2022/01/14 12:57:19;;;;;;;24.95;14.05;;;;;;;18.67;48.60;98208.59;10399577;28;20108;-23
2022/01/14 13:02:21;;;;;;;22.60;14.70;;;;;;;18.71;49.26;98192.63;10371749;28;20045;-23
2022/01/14 13:07:24;;;;;;;27.08;14.68;;;;;;;18.68;49.15;98190.03;10402568;28;20080;-23
2022/01/14 13:12:31;;;;;;;27.13;13.20;;;;;;;18.73;49.47;98185.88;10395475;28;20033;-22
2022/01/14 13:17:35;;;;;;;31.27;14.57;;;;;;;18.72;50.51;98191.78;10388599;28;20041;-24
2022/01/14 13:22:36;;;;;;;27.98;14.52;;;;;;;18.71;49.45;98190.94;10416510;28;20538;-22
2022/01/14 13:27:41;;;;;;;25.45;13.77;;;;;;;18.74;49.62;98192.69;10417993;28;20120;-23
2022/01/14 13:32:43;;;;;;;29.13;13.95;;;;;;;18.70;49.60;98185.81;10418202;28;20021;-22
2022/01/14 13:37:45;;;;;;;23.13;13.25;;;;;;;18.66;49.53;98174.75;10458222;28;20041;-23
2022/01/14 13:42:53;;;;;;;24.48;13.20;;;;;;;18.73;49.50;98183.34;10458756;28;20033;-24
2022/01/14 13:48:27;;;;;;;24.88;13.38;;;;;;;18.74;49.32;98174.94;10457935;28;20082;-23
2022/01/14 13:53:34;;;;;;;19.48;12.10;;;;;;;18.69;49.38;98177.38;10419259;28;20041;-23
2022/01/14 13:58:36;;;;;;;21.23;12.85;;;;;;;18.69;49.14;98162.16;10455761;28;20056;-24
2022/01/14 14:03:51;;;;;;;19.10;12.50;;;;;;;18.67;49.30;98158.69;10448579;28;20416;-23
2022/01/14 14:19:44;;;;;;;23.70;12.15;;;;;;;18.67;50.33;98150.25;10451521;28;20041;-24
2022/01/14 14:25:15;;;;;;;22.27;12.15;;;;;;;18.63;50.68;98135.78;10433052;28;20033;-25
2022/01/14 14:30:15;;;;;;;21.45;13.15;;;;;;;18.64;50.85;98129.88;10463796;28;20491;-23
2022/01/14 14:35:18;;;;;;;20.83;11.80;;;;;;;18.60;50.88;98123.88;10433890;28;20041;-23
2022/01/14 14:40:24;;;;;;;21.30;12.88;;;;;;;18.62;50.88;98118.84;10427557;28;20091;-25
2022/01/14 14:45:25;;;;;;;17.27;11.13;;;;;;;18.63;51.07;98121.41;10459004;28;20457;-22
2022/01/14 14:50:27;;;;;;;21.27;12.63;;;;;;;18.56;50.86;98109.44;10456973;28;20037;-20
2022/01/14 14:55:31;;;;;;;24.92;13.95;;;;;;;18.28;46.72;98121.41;10428969;28;20072;-22
2022/01/14 15:00:31;;;;;;;19.75;12.10;;;;;;;18.51;48.96;98120.31;10455191;28;20499;-23
2022/01/14 15:05:32;;;;;;;19.47;11.40;;;;;;;18.58;49.22;98123.00;10435725;28;20045;-23
2022/01/14 15:10:33;;;;;;;18.00;11.30;;;;;;;18.61;49.18;98122.22;10413981;28;20037;-23
2022/01/14 15:20:42;;;;;;;21.73;11.95;;;;;;;18.56;48.14;98103.47;10412908;28;20037;-23
2022/01/14 15:25:44;;;;;;;18.58;11.30;;;;;;;18.61;49.37;98101.91;10412958;28;20041;-24
2022/01/14 15:30:45;;;;;;;18.27;11.13;;;;;;;18.61;49.51;98099.38;10412081;28;20072;-24
2022/01/14 15:35:45;;;;;;;17.55;10.85;;;;;;;18.61;49.97;98101.91;10413110;28;20037;-23
2022/01/14 15:40:46;;;;;;;17.83;11.63;;;;;;;18.61;49.42;98091.75;10427176;28;20044;-23
2022/01/14 15:45:46;;;;;;;25.17;13.05;;;;;;;18.44;47.40;98088.88;10453293;28;20032;-23
2022/01/14 15:50:48;;;;;;;19.27;11.33;;;;;;;18.53;49.39;98094.16;10413114;28;20041;-24
2022/01/14 15:55:51;;;;;;;19.08;11.75;;;;;;;18.54;49.59;98082.31;10426678;28;20024;-23
2022/01/14 16:00:51;;;;;;;17.52;11.20;;;;;;;18.56;49.51;98091.66;10449221;28;20052;-23
2022/01/14 16:05:52;;;;;;;17.43;11.40;;;;;;;18.61;49.06;98096.84;10415045;28;20046;-24
2022/01/14 16:10:52;;;;;;;17.13;11.25;;;;;;;18.70;48.83;98097.03;10408506;28;20320;-23
2022/01/14 16:15:53;;;;;;;17.75;11.35;;;;;;;18.63;48.97;98080.84;10410662;28;20090;-23
2022/01/14 16:20:54;;;;;;;19.63;11.20;;;;;;;18.64;49.17;98089.28;10441843;28;20032;-22
2022/01/14 16:25:54;;;;;;;15.27;10.48;;;;;;;18.69;49.00;98097.84;10442964;28;20452;-23
2022/01/14 16:30:59;;;;;;;15.03;10.70;;;;;;;18.68;49.13;98086.00;10451210;28;20056;-23
2022/01/14 16:36:00;;;;;;;19.55;11.55;;;;;;;18.66;49.04;98093.56;10423712;28;20640;-22
2022/01/14 16:41:00;;;;;;;18.92;10.10;;;;;;;18.64;49.69;98092.69;10409804;28;20411;-23
2022/01/14 16:46:02;;;;;;;18.03;10.77;;;;;;;18.66;49.22;98105.41;10410149;28;20042;-23
2022/01/14 16:51:03;;;;;;;16.95;10.48;;;;;;;18.58;48.92;98079.03;10437898;28;20491;-24
2022/01/14 16:56:04;;;;;;;23.50;11.20;;;;;;;18.64;48.06;98107.91;10448808;28;20029;-23
2022/01/14 17:01:05;;;;;;;24.83;12.60;;;;;;;18.66;48.94;98115.56;10449069;28;20513;-23
2022/01/14 17:06:05;;;;;;;21.42;12.30;;;;;;;18.69;48.66;98111.41;10449132;28;20124;-23
2022/01/14 17:11:06;;;;;;;20.63;12.03;;;;;;;18.73;46.71;98102.16;10429123;28;20037;-23
2022/01/14 17:16:07;;;;;;;17.48;11.43;;;;;;;18.67;44.11;98102.06;10409112;28;20785;-24
2022/01/14 17:21:07;;;;;;;16.42;10.68;;;;;;;18.69;43.72;98100.41;10436743;28;20040;-23
2022/01/14 17:26:09;;;;;;;20.83;10.87;;;;;;;18.62;46.08;98088.41;10444990;28;20041;-24
2022/01/14 17:31:11;;;;;;;16.70;11.38;;;;;;;18.81;45.81;98082.88;10450265;28;20043;-23
2022/01/14 17:36:11;;;;;;;13.80;9.43;;;;;;;18.80;45.61;98086.25;10448350;28;20499;-23
2022/01/14 17:41:12;;;;;;;17.90;10.30;;;;;;;18.79;45.15;98077.78;10428423;28;20056;-22
2022/01/14 17:46:19;;;;;;;17.52;10.95;;;;;;;18.71;45.53;98069.16;10409754;28;20774;-23
2022/01/14 17:51:20;;;;;;;12.82;8.50;;;;;;;18.51;44.45;98054.34;10416374;28;20095;-23
2022/01/14 17:56:24;;;;;;;16.02;10.57;;;;;;;18.55;44.87;98035.81;10436626;28;20424;-23
2022/01/14 18:01:25;;;;;;;13.10;9.38;;;;;;;18.66;46.98;98040.28;10457560;28;20040;-23
2022/01/14 18:06:25;;;;;;;14.07;9.82;;;;;;;18.68;47.23;98040.34;10455754;28;20033;-23
2022/01/14 18:11:31;;;;;;;13.97;9.80;;;;;;;18.73;47.54;98031.13;10455428;28;20039;-24
2022/01/14 18:16:33;;;;;;;15.23;9.87;;;;;;;18.78;47.48;98020.25;10436509;28;20676;-22
2022/01/14 18:21:33;;;;;;;13.45;8.93;;;;;;;18.79;47.69;98014.34;10415357;28;20091;-23
2022/01/14 18:26:35;;;;;;;15.60;9.45;;;;;;;18.78;47.66;97999.09;10437232;28;20110;-23
2022/01/14 18:31:39;;;;;;;12.18;9.40;;;;;;;18.77;48.00;97997.38;10456573;28;20098;-24
2022/01/14 18:36:40;;;;;;;13.43;9.18;;;;;;;18.77;47.96;97988.06;10428985;28;20104;-23
2022/01/14 18:41:40;;;;;;;14.15;9.52;;;;;;;18.71;48.16;97987.97;10428714;28;20041;-24
2022/01/14 18:46:42;;;;;;;14.87;9.63;;;;;;;18.63;48.57;97970.88;10407441;28;20416;-23
2022/01/14 18:51:43;;;;;;;14.95;9.52;;;;;;;18.76;48.96;97983.81;10398342;28;20090;-23
2022/01/14 18:56:43;;;;;;;17.50;9.85;;;;;;;18.73;49.03;97993.06;10407622;28;20400;-25
2022/01/14 19:01:43;;;;;;;12.93;9.17;;;;;;;18.71;49.37;97997.25;10380101;28;20038;-23
2022/01/14 19:06:44;;;;;;;16.58;10.10;;;;;;;18.71;49.35;97999.78;10450058;28;20299;-24
2022/01/14 19:11:44;;;;;;;12.65;9.43;;;;;;;18.72;49.76;98004.03;10401417;28;20048;-23
2022/01/14 19:16:45;;;;;;;14.73;10.20;;;;;;;18.73;49.83;98000.66;10372892;28;20554;-23
2022/01/14 19:21:46;;;;;;;15.38;9.70;;;;;;;18.73;50.22;98003.22;10430244;28;20047;-23
2022/01/14 19:26:47;;;;;;;19.65;9.02;;;;;;;18.70;50.13;97990.47;10427668;28;20515;-23
2022/01/14 19:31:48;;;;;;;16.17;9.47;;;;;;;18.75;50.04;97983.81;10412729;28;20029;-22
2022/01/14 19:36:48;;;;;;;14.88;8.75;;;;;;;18.69;50.15;97981.16;10440129;28;20787;-23
2022/01/14 19:41:49;;;;;;;17.13;8.80;;;;;;;18.74;50.03;97987.19;10427064;28;20116;-23
2022/01/14 19:46:49;;;;;;;13.95;9.07;;;;;;;18.71;50.36;97982.03;10405098;28;20025;-23
2022/01/14 19:51:52;;;;;;;12.73;8.83;;;;;;;18.71;50.57;97982.03;10453018;28;20033;-24
2022/01/14 19:56:52;;;;;;;14.07;9.13;;;;;;;18.70;50.37;97980.34;10426157;28;20284;-24
2022/01/14 20:01:53;;;;;;;15.00;9.27;;;;;;;18.73;50.28;97973.63;10406282;28;20786;-23
2022/01/14 20:06:53;;;;;;;12.77;9.40;;;;;;;18.72;50.29;97959.25;10378114;28;20043;-23
2022/01/14 20:11:54;;;;;;;10.48;8.05;;;;;;;18.71;50.18;97952.47;10395522;28;20338;-23
2022/01/14 20:16:54;;;;;;;12.03;9.17;;;;;;;18.73;49.93;97955.00;10383998;28;20493;-24
2022/01/14 20:21:54;;;;;;;14.07;7.97;;;;;;;18.73;49.87;97953.34;10414085;28;20053;-23
2022/01/14 20:26:55;;;;;;;10.77;8.30;;;;;;;18.71;50.10;97961.75;10407047;28;20051;-23
2022/01/14 20:31:55;;;;;;;12.60;7.45;;;;;;;18.72;50.20;97953.28;10404500;28;20164;-22
2022/01/14 20:36:56;;;;;;;13.03;8.13;;;;;;;18.67;50.23;97962.53;10395948;28;20048;-23
2022/01/14 20:41:56;;;;;;;12.57;7.77;;;;;;;18.67;50.17;97955.75;10389023;28;20659;-24
2022/01/14 20:46:56;;;;;;;10.77;8.23;;;;;;;18.71;49.99;97946.53;10383914;28;20045;-24
2022/01/14 20:51:57;;;;;;;10.63;7.80;;;;;;;18.62;50.07;97920.97;10395061;28;20052;-23
2022/01/14 20:56:57;;;;;;;11.18;7.85;;;;;;;18.70;49.81;97934.66;10386937;28;20488;-23
2022/01/14 21:01:58;;;;;;;11.33;7.97;;;;;;;18.72;49.88;97927.94;10386091;28;20116;-23
2022/01/14 21:06:58;;;;;;;10.17;7.70;;;;;;;18.72;49.93;97922.84;10371380;28;20041;-23
2022/01/14 21:11:59;;;;;;;11.38;7.72;;;;;;;18.70;49.90;97914.38;10373610;28;20696;-23
2022/01/14 21:16:59;;;;;;;10.60;7.27;;;;;;;18.72;50.09;97907.63;10385937;28;20085;-23
2022/01/14 21:21:59;;;;;;;12.77;7.80;;;;;;;18.70;50.03;97906.75;10387677;28;20057;-23
2022/01/14 21:27:00;;;;;;;9.67;6.80;;;;;;;18.73;49.95;97900.06;10370031;28;20129;-23
2022/01/14 21:32:02;;;;;;;10.40;7.15;;;;;;;18.76;49.90;97895.03;10366983;28;20069;-23
2022/01/14 21:37:04;;;;;;;8.82;6.50;;;;;;;18.72;50.03;97898.34;10400392;28;20524;-23
2022/01/14 21:42:04;;;;;;;10.05;7.85;;;;;;;18.72;49.84;97884.81;10366278;28;20034;-23
2022/01/14 21:47:05;;;;;;;11.32;6.68;;;;;;;18.73;49.78;97894.13;10363057;28;20658;-23
2022/01/14 21:52:06;;;;;;;9.20;6.80;;;;;;;18.72;49.81;97892.41;10374621;28;20045;-23
2022/01/14 21:57:06;;;;;;;8.50;6.53;;;;;;;18.75;49.71;97892.50;10420544;28;20108;-23
2022/01/14 22:02:06;;;;;;;9.77;6.97;;;;;;;18.71;49.83;97886.50;10418867;28;20431;-23
2022/01/14 22:07:07;;;;;;;13.37;8.07;;;;;;;18.65;50.48;97876.25;10448857;28;20086;-23
2022/01/14 22:12:08;;;;;;;11.90;7.90;;;;;;;18.68;50.10;97872.91;10394501;28;20296;-23
2022/01/14 22:17:08;;;;;;;11.93;7.88;;;;;;;18.71;50.06;97876.34;10431797;28;20283;-23
2022/01/14 22:22:09;;;;;;;12.40;8.10;;;;;;;18.66;50.66;97874.56;10389253;28;20048;-24
2022/01/14 22:27:09;;;;;;;12.87;7.80;;;;;;;18.66;50.22;97866.97;10389695;28;20292;-24
2022/01/14 22:32:09;;;;;;;14.23;7.23;;;;;;;18.71;50.14;97862.81;10369063;28;20092;-23
2022/01/14 22:37:10;;;;;;;12.10;7.30;;;;;;;18.72;50.05;97856.91;10408833;28;20045;-23
2022/01/14 22:42:10;;;;;;;11.70;6.97;;;;;;;18.71;49.80;97860.25;10441513;28;20031;-23
2022/01/14 22:47:10;;;;;;;14.52;7.13;;;;;;;18.73;49.96;97856.94;10455787;28;20029;-22
2022/01/14 22:52:12;;;;;;;9.87;7.20;;;;;;;18.72;49.82;97851.81;10424996;28;20057;-23
2022/01/14 22:57:12;;;;;;;10.13;6.07;;;;;;;18.73;49.77;97853.53;10441930;28;20075;-23
2022/01/14 23:02:13;;;;;;;8.65;6.53;;;;;;;18.74;49.53;97851.03;10442762;28;20561;-23
2022/01/14 23:07:13;;;;;;;10.63;6.53;;;;;;;18.68;49.94;97847.53;10413631;28;20043;-23
2022/01/14 23:12:13;;;;;;;10.52;6.25;;;;;;;18.68;49.83;97834.84;10440794;28;20041;-23
2022/01/14 23:17:14;;;;;;;10.10;6.63;;;;;;;18.69;49.70;97834.91;10454674;28;20029;-23
2022/01/14 23:22:14;;;;;;;10.77;5.93;;;;;;;18.69;49.74;97834.03;10417998;28;20042;-23
2022/01/14 23:27:15;;;;;;;10.85;5.60;;;;;;;18.68;49.75;97834.84;10413443;28;20296;-23
2022/01/14 23:32:15;;;;;;;10.13;6.33;;;;;;;18.69;49.84;97841.63;10416553;28;20045;-23
2022/01/14 23:37:18;;;;;;;8.82;5.75;;;;;;;18.67;49.99;97828.91;10453995;28;20036;-23
2022/01/14 23:42:18;;;;;;;9.35;5.75;;;;;;;18.67;49.91;97821.31;10452121;28;20504;-24
2022/01/14 23:47:36;;;;;;;9.85;5.93;;;;;;;18.70;49.76;97817.97;10453634;28;20076;-23
2022/01/14 23:52:38;;;;;;;9.15;6.22;;;;;;;18.72;49.63;97809.56;10414032;28;20037;-23
2022/01/14 23:57:38;;;;;;;7.43;5.20;;;;;;;18.69;49.89;97803.59;10411415;28;20400;-23
